sensor_id;sensor_type;location;lat;lon;timestamp;temperature;humidity
70336;SHT31;57756;47.408;18.940;2023-06-22T00:01:58;22.29;92.59
70336;SHT31;57756;47.408;18.940;2023-06-22T00:04:24;22.22;92.30
70336;SHT31;57756;47.408;18.940;2023-06-22T00:06:49;22.22;93.04
70336;SHT31;57756;47.408;18.940;2023-06-22T00:09:14;22.28;92.92
70336;SHT31;57756;47.408;18.940;2023-06-22T00:11:40;22.21;93.57
70336;SHT31;57756;47.408;18.940;2023-06-22T00:14:05;22.18;94.11
70336;SHT31;57756;47.408;18.940;2023-06-22T00:16:34;22.11;94.24
70336;SHT31;57756;47.408;18.940;2023-06-22T00:19:00;22.16;93.71
70336;SHT31;57756;47.408;18.940;2023-06-22T00:21:27;22.11;94.26
70336;SHT31;57756;47.408;18.940;2023-06-22T00:23:52;22.12;94.56
70336;SHT31;57756;47.408;18.940;2023-06-22T00:26:18;22.09;94.80
70336;SHT31;57756;47.408;18.940;2023-06-22T00:28:44;22.11;94.33
70336;SHT31;57756;47.408;18.940;2023-06-22T00:31:09;22.05;94.01
70336;SHT31;57756;47.408;18.940;2023-06-22T00:33:35;22.08;94.94
70336;SHT31;57756;47.408;18.940;2023-06-22T00:36:01;22.05;94.99
70336;SHT31;57756;47.408;18.940;2023-06-22T00:38:28;22.11;95.08
70336;SHT31;57756;47.408;18.940;2023-06-22T00:40:53;22.02;94.95
70336;SHT31;57756;47.408;18.940;2023-06-22T00:43:19;22.04;94.92
70336;SHT31;57756;47.408;18.940;2023-06-22T00:45:45;22.01;94.82
70336;SHT31;57756;47.408;18.940;2023-06-22T00:48:11;21.97;94.64
70336;SHT31;57756;47.408;18.940;2023-06-22T00:50:37;21.93;95.04
70336;SHT31;57756;47.408;18.940;2023-06-22T00:53:06;21.93;94.44
70336;SHT31;57756;47.408;18.940;2023-06-22T00:55:41;21.94;95.08
70336;SHT31;57756;47.408;18.940;2023-06-22T00:58:09;21.94;95.21
70336;SHT31;57756;47.408;18.940;2023-06-22T01:00:36;21.94;94.50
70336;SHT31;57756;47.408;18.940;2023-06-22T01:03:03;21.87;94.82
70336;SHT31;57756;47.408;18.940;2023-06-22T01:05:29;21.87;94.71
70336;SHT31;57756;47.408;18.940;2023-06-22T01:10:48;21.84;94.74
70336;SHT31;57756;47.408;18.940;2023-06-22T01:13:37;21.83;95.32
70336;SHT31;57756;47.408;18.940;2023-06-22T01:16:14;21.83;95.39
70336;SHT31;57756;47.408;18.940;2023-06-22T01:18:43;21.81;95.28
70336;SHT31;57756;47.408;18.940;2023-06-22T01:21:12;21.76;95.36
70336;SHT31;57756;47.408;18.940;2023-06-22T01:24:15;21.74;95.46
70336;SHT31;57756;47.408;18.940;2023-06-22T01:27:12;21.76;95.11
70336;SHT31;57756;47.408;18.940;2023-06-22T01:29:40;21.77;95.50
70336;SHT31;57756;47.408;18.940;2023-06-22T01:32:09;21.73;95.35
70336;SHT31;57756;47.408;18.940;2023-06-22T01:34:35;21.74;95.73
70336;SHT31;57756;47.408;18.940;2023-06-22T01:37:02;21.73;95.95
70336;SHT31;57756;47.408;18.940;2023-06-22T01:39:29;21.68;95.50
70336;SHT31;57756;47.408;18.940;2023-06-22T01:41:55;21.60;96.56
70336;SHT31;57756;47.408;18.940;2023-06-22T01:44:21;21.54;96.27
70336;SHT31;57756;47.408;18.940;2023-06-22T01:46:48;21.56;96.35
70336;SHT31;57756;47.408;18.940;2023-06-22T01:49:14;21.50;96.02
70336;SHT31;57756;47.408;18.940;2023-06-22T01:51:40;21.51;96.06
70336;SHT31;57756;47.408;18.940;2023-06-22T01:54:06;21.49;96.14
70336;SHT31;57756;47.408;18.940;2023-06-22T01:56:33;21.46;96.58
70336;SHT31;57756;47.408;18.940;2023-06-22T01:59:13;21.45;96.44
70336;SHT31;57756;47.408;18.940;2023-06-22T02:01:44;21.45;96.34
70336;SHT31;57756;47.408;18.940;2023-06-22T02:04:36;21.37;96.42
70336;SHT31;57756;47.408;18.940;2023-06-22T02:07:06;21.39;96.36
70336;SHT31;57756;47.408;18.940;2023-06-22T02:09:35;21.43;96.74
70336;SHT31;57756;47.408;18.940;2023-06-22T02:12:04;21.46;96.94
70336;SHT31;57756;47.408;18.940;2023-06-22T02:14:30;21.43;97.13
70336;SHT31;57756;47.408;18.940;2023-06-22T02:16:56;21.42;96.63
70336;SHT31;57756;47.408;18.940;2023-06-22T02:19:24;21.39;96.50
70336;SHT31;57756;47.408;18.940;2023-06-22T02:21:50;21.37;96.86
70336;SHT31;57756;47.408;18.940;2023-06-22T02:24:15;21.35;96.50
70336;SHT31;57756;47.408;18.940;2023-06-22T02:26:42;21.36;96.65
70336;SHT31;57756;47.408;18.940;2023-06-22T02:29:08;21.35;96.76
70336;SHT31;57756;47.408;18.940;2023-06-22T02:31:33;21.33;96.51
70336;SHT31;57756;47.408;18.940;2023-06-22T02:33:59;21.28;96.15
70336;SHT31;57756;47.408;18.940;2023-06-22T02:36:25;21.22;96.79
70336;SHT31;57756;47.408;18.940;2023-06-22T02:38:53;21.26;96.74
70336;SHT31;57756;47.408;18.940;2023-06-22T02:41:19;21.25;97.02
70336;SHT31;57756;47.408;18.940;2023-06-22T02:43:48;21.23;96.69
70336;SHT31;57756;47.408;18.940;2023-06-22T02:46:13;21.23;96.88
70336;SHT31;57756;47.408;18.940;2023-06-22T02:48:40;21.22;97.28
70336;SHT31;57756;47.408;18.940;2023-06-22T02:51:06;21.19;96.84
70336;SHT31;57756;47.408;18.940;2023-06-22T02:53:32;21.23;95.76
70336;SHT31;57756;47.408;18.940;2023-06-22T02:55:57;21.25;95.01
70336;SHT31;57756;47.408;18.940;2023-06-22T02:58:23;21.26;95.25
70336;SHT31;57756;47.408;18.940;2023-06-22T03:00:50;21.22;95.22
70336;SHT31;57756;47.408;18.940;2023-06-22T03:03:21;21.20;94.89
70336;SHT31;57756;47.408;18.940;2023-06-22T03:05:46;21.19;95.19
70336;SHT31;57756;47.408;18.940;2023-06-22T03:08:12;21.23;94.15
70336;SHT31;57756;47.408;18.940;2023-06-22T03:10:37;21.20;94.71
70336;SHT31;57756;47.408;18.940;2023-06-22T03:13:04;21.20;95.26
70336;SHT31;57756;47.408;18.940;2023-06-22T03:15:29;21.16;95.48
70336;SHT31;57756;47.408;18.940;2023-06-22T03:17:56;21.15;95.58
70336;SHT31;57756;47.408;18.940;2023-06-22T03:20:22;21.18;95.48
70336;SHT31;57756;47.408;18.940;2023-06-22T03:22:48;21.16;95.54
70336;SHT31;57756;47.408;18.940;2023-06-22T03:25:14;21.19;94.52
70336;SHT31;57756;47.408;18.940;2023-06-22T03:27:40;21.16;94.71
70336;SHT31;57756;47.408;18.940;2023-06-22T03:30:09;21.15;94.67
70336;SHT31;57756;47.408;18.940;2023-06-22T03:32:35;21.16;94.65
70336;SHT31;57756;47.408;18.940;2023-06-22T03:35:01;21.20;94.47
70336;SHT31;57756;47.408;18.940;2023-06-22T03:37:27;21.26;94.85
70336;SHT31;57756;47.408;18.940;2023-06-22T03:39:53;21.22;94.13
70336;SHT31;57756;47.408;18.940;2023-06-22T03:42:19;21.22;95.48
70336;SHT31;57756;47.408;18.940;2023-06-22T03:44:44;21.29;95.53
70336;SHT31;57756;47.408;18.940;2023-06-22T03:47:10;21.33;95.50
70336;SHT31;57756;47.408;18.940;2023-06-22T03:49:35;21.36;95.16
70336;SHT31;57756;47.408;18.940;2023-06-22T03:52:01;21.37;95.37
70336;SHT31;57756;47.408;18.940;2023-06-22T03:54:28;21.37;94.69
70336;SHT31;57756;47.408;18.940;2023-06-22T03:56:54;21.43;95.49
70336;SHT31;57756;47.408;18.940;2023-06-22T03:59:19;21.49;94.84
70336;SHT31;57756;47.408;18.940;2023-06-22T04:01:45;21.56;94.70
70336;SHT31;57756;47.408;18.940;2023-06-22T04:04:11;21.61;94.99
70336;SHT31;57756;47.408;18.940;2023-06-22T04:06:38;21.70;95.26
70336;SHT31;57756;47.408;18.940;2023-06-22T04:09:03;21.77;94.65
70336;SHT31;57756;47.408;18.940;2023-06-22T04:11:29;21.81;94.43
70336;SHT31;57756;47.408;18.940;2023-06-22T04:13:54;21.87;94.60
70336;SHT31;57756;47.408;18.940;2023-06-22T04:16:20;21.93;94.35
70336;SHT31;57756;47.408;18.940;2023-06-22T04:18:46;22.01;93.54
70336;SHT31;57756;47.408;18.940;2023-06-22T04:21:11;22.15;92.61
70336;SHT31;57756;47.408;18.940;2023-06-22T04:23:37;22.21;92.84
70336;SHT31;57756;47.408;18.940;2023-06-22T04:26:02;22.26;93.53
70336;SHT31;57756;47.408;18.940;2023-06-22T04:28:28;22.32;93.12
70336;SHT31;57756;47.408;18.940;2023-06-22T04:30:53;22.41;91.90
70336;SHT31;57756;47.408;18.940;2023-06-22T04:33:23;22.50;92.67
70336;SHT31;57756;47.408;18.940;2023-06-22T04:35:49;22.60;91.84
70336;SHT31;57756;47.408;18.940;2023-06-22T04:38:14;22.71;92.38
70336;SHT31;57756;47.408;18.940;2023-06-22T04:40:40;22.77;92.71
70336;SHT31;57756;47.408;18.940;2023-06-22T04:43:05;22.83;91.43
70336;SHT31;57756;47.408;18.940;2023-06-22T04:45:32;22.89;90.64
70336;SHT31;57756;47.408;18.940;2023-06-22T04:47:58;22.97;90.82
70336;SHT31;57756;47.408;18.940;2023-06-22T04:50:24;23.04;88.82
70336;SHT31;57756;47.408;18.940;2023-06-22T04:52:50;23.15;89.93
70336;SHT31;57756;47.408;18.940;2023-06-22T04:55:16;23.21;89.97
70336;SHT31;57756;47.408;18.940;2023-06-22T04:57:44;23.37;89.94
70336;SHT31;57756;47.408;18.940;2023-06-22T05:00:15;23.45;89.30
70336;SHT31;57756;47.408;18.940;2023-06-22T05:02:46;23.54;89.06
70336;SHT31;57756;47.408;18.940;2023-06-22T05:05:12;23.63;89.21
70336;SHT31;57756;47.408;18.940;2023-06-22T05:07:45;23.73;87.88
70336;SHT31;57756;47.408;18.940;2023-06-22T05:10:13;23.84;86.42
70336;SHT31;57756;47.408;18.940;2023-06-22T05:12:40;23.94;87.61
70336;SHT31;57756;47.408;18.940;2023-06-22T05:15:09;24.09;86.89
70336;SHT31;57756;47.408;18.940;2023-06-22T05:17:35;24.20;85.79
70336;SHT31;57756;47.408;18.940;2023-06-22T05:20:02;24.31;84.70
70336;SHT31;57756;47.408;18.940;2023-06-22T05:22:28;24.38;85.27
70336;SHT31;57756;47.408;18.940;2023-06-22T05:24:54;24.51;86.45
70336;SHT31;57756;47.408;18.940;2023-06-22T05:27:19;24.62;85.97
70336;SHT31;57756;47.408;18.940;2023-06-22T05:29:45;24.79;86.30
70336;SHT31;57756;47.408;18.940;2023-06-22T05:32:10;25.02;84.77
70336;SHT31;57756;47.408;18.940;2023-06-22T05:34:36;25.19;83.40
70336;SHT31;57756;47.408;18.940;2023-06-22T05:37:02;25.48;82.20
70336;SHT31;57756;47.408;18.940;2023-06-22T05:39:27;25.84;81.14
70336;SHT31;57756;47.408;18.940;2023-06-22T05:41:53;26.13;80.67
70336;SHT31;57756;47.408;18.940;2023-06-22T05:44:19;26.41;78.02
70336;SHT31;57756;47.408;18.940;2023-06-22T05:46:45;26.74;78.30
70336;SHT31;57756;47.408;18.940;2023-06-22T05:49:12;26.77;76.70
70336;SHT31;57756;47.408;18.940;2023-06-22T05:51:38;27.19;75.89
70336;SHT31;57756;47.408;18.940;2023-06-22T05:54:03;27.19;75.06
70336;SHT31;57756;47.408;18.940;2023-06-22T05:56:29;27.33;76.13
70336;SHT31;57756;47.408;18.940;2023-06-22T05:58:54;27.46;75.36
70336;SHT31;57756;47.408;18.940;2023-06-22T06:01:20;27.52;74.43
70336;SHT31;57756;47.408;18.940;2023-06-22T06:03:45;27.50;73.89
70336;SHT31;57756;47.408;18.940;2023-06-22T06:06:11;27.47;74.69
70336;SHT31;57756;47.408;18.940;2023-06-22T06:08:37;27.53;74.32
70336;SHT31;57756;47.408;18.940;2023-06-22T06:11:03;27.61;73.34
70336;SHT31;57756;47.408;18.940;2023-06-22T06:13:28;27.66;73.62
70336;SHT31;57756;47.408;18.940;2023-06-22T06:15:54;27.69;72.57
70336;SHT31;57756;47.408;18.940;2023-06-22T06:18:23;27.97;71.35
70336;SHT31;57756;47.408;18.940;2023-06-22T06:20:48;28.28;71.32
70336;SHT31;57756;47.408;18.940;2023-06-22T06:23:14;28.57;70.23
70336;SHT31;57756;47.408;18.940;2023-06-22T06:25:40;28.83;70.23
70336;SHT31;57756;47.408;18.940;2023-06-22T06:28:05;29.01;68.26
70336;SHT31;57756;47.408;18.940;2023-06-22T06:30:31;29.35;67.70
70336;SHT31;57756;47.408;18.940;2023-06-22T06:32:57;29.63;67.24
70336;SHT31;57756;47.408;18.940;2023-06-22T06:35:22;29.89;65.92
70336;SHT31;57756;47.408;18.940;2023-06-22T06:37:49;30.09;64.84
70336;SHT31;57756;47.408;18.940;2023-06-22T06:40:16;30.33;65.07
70336;SHT31;57756;47.408;18.940;2023-06-22T06:42:44;30.12;65.71
70336;SHT31;57756;47.408;18.940;2023-06-22T06:45:20;30.35;62.52
70336;SHT31;57756;47.408;18.940;2023-06-22T06:47:48;30.49;63.94
70336;SHT31;57756;47.408;18.940;2023-06-22T06:50:14;30.48;63.80
70336;SHT31;57756;47.408;18.940;2023-06-22T06:52:39;30.60;65.05
70336;SHT31;57756;47.408;18.940;2023-06-22T06:55:06;30.74;63.74
70336;SHT31;57756;47.408;18.940;2023-06-22T06:57:34;30.95;61.79
70336;SHT31;57756;47.408;18.940;2023-06-22T07:00:02;31.27;61.50
70336;SHT31;57756;47.408;18.940;2023-06-22T07:02:32;31.56;62.81
70336;SHT31;57756;47.408;18.940;2023-06-22T07:04:58;31.84;60.11
70336;SHT31;57756;47.408;18.940;2023-06-22T07:07:24;31.96;59.32
70336;SHT31;57756;47.408;18.940;2023-06-22T07:09:49;32.16;58.94
70336;SHT31;57756;47.408;18.940;2023-06-22T07:12:14;32.26;58.91
70336;SHT31;57756;47.408;18.940;2023-06-22T07:14:40;32.48;59.93
70336;SHT31;57756;47.408;18.940;2023-06-22T07:17:06;32.39;58.05
70336;SHT31;57756;47.408;18.940;2023-06-22T07:19:32;32.73;58.88
70336;SHT31;57756;47.408;18.940;2023-06-22T07:21:58;33.00;58.27
70336;SHT31;57756;47.408;18.940;2023-06-22T07:24:24;32.96;59.28
70336;SHT31;57756;47.408;18.940;2023-06-22T07:26:50;32.97;58.04
70336;SHT31;57756;47.408;18.940;2023-06-22T07:29:19;33.31;57.83
70336;SHT31;57756;47.408;18.940;2023-06-22T07:31:46;32.78;58.16
70336;SHT31;57756;47.408;18.940;2023-06-22T07:34:13;33.19;58.22
70336;SHT31;57756;47.408;18.940;2023-06-22T07:36:38;33.56;57.93
70336;SHT31;57756;47.408;18.940;2023-06-22T07:39:04;33.25;58.50
70336;SHT31;57756;47.408;18.940;2023-06-22T07:41:30;33.34;58.96
70336;SHT31;57756;47.408;18.940;2023-06-22T07:43:56;33.29;57.32
70336;SHT31;57756;47.408;18.940;2023-06-22T07:46:22;33.63;58.26
70336;SHT31;57756;47.408;18.940;2023-06-22T07:48:47;34.10;58.21
70336;SHT31;57756;47.408;18.940;2023-06-22T07:51:13;34.09;55.54
70336;SHT31;57756;47.408;18.940;2023-06-22T07:53:40;34.14;56.00
70336;SHT31;57756;47.408;18.940;2023-06-22T07:56:06;33.68;57.73
70336;SHT31;57756;47.408;18.940;2023-06-22T07:58:34;33.79;56.14
70336;SHT31;57756;47.408;18.940;2023-06-22T08:00:59;33.65;56.17
70336;SHT31;57756;47.408;18.940;2023-06-22T08:03:25;33.77;57.18
70336;SHT31;57756;47.408;18.940;2023-06-22T08:05:50;34.17;56.74
70336;SHT31;57756;47.408;18.940;2023-06-22T08:08:16;33.94;56.09
70336;SHT31;57756;47.408;18.940;2023-06-22T08:10:42;34.40;56.71
70336;SHT31;57756;47.408;18.940;2023-06-22T08:13:07;34.25;56.06
70336;SHT31;57756;47.408;18.940;2023-06-22T08:15:33;34.54;55.88
70336;SHT31;57756;47.408;18.940;2023-06-22T08:17:59;34.58;59.24
70336;SHT31;57756;47.408;18.940;2023-06-22T08:20:26;34.72;56.85
70336;SHT31;57756;47.408;18.940;2023-06-22T08:22:52;34.51;54.68
70336;SHT31;57756;47.408;18.940;2023-06-22T08:25:18;34.83;57.19
70336;SHT31;57756;47.408;18.940;2023-06-22T08:27:47;34.65;57.57
70336;SHT31;57756;47.408;18.940;2023-06-22T08:30:16;34.69;56.49
70336;SHT31;57756;47.408;18.940;2023-06-22T08:32:43;34.92;55.25
70336;SHT31;57756;47.408;18.940;2023-06-22T08:35:09;34.99;54.24
70336;SHT31;57756;47.408;18.940;2023-06-22T08:37:35;35.23;54.76
70336;SHT31;57756;47.408;18.940;2023-06-22T08:40:03;34.55;54.13
70336;SHT31;57756;47.408;18.940;2023-06-22T08:42:33;34.29;55.92
70336;SHT31;57756;47.408;18.940;2023-06-22T08:44:58;34.33;54.69
70336;SHT31;57756;47.408;18.940;2023-06-22T08:47:24;34.52;57.30
70336;SHT31;57756;47.408;18.940;2023-06-22T08:49:49;34.91;56.05
70336;SHT31;57756;47.408;18.940;2023-06-22T08:52:15;35.12;54.68
70336;SHT31;57756;47.408;18.940;2023-06-22T08:54:40;35.23;55.65
70336;SHT31;57756;47.408;18.940;2023-06-22T08:57:06;35.41;54.22
70336;SHT31;57756;47.408;18.940;2023-06-22T08:59:32;35.44;55.41
70336;SHT31;57756;47.408;18.940;2023-06-22T09:01:57;35.62;54.44
70336;SHT31;57756;47.408;18.940;2023-06-22T09:04:23;35.88;54.94
70336;SHT31;57756;47.408;18.940;2023-06-22T09:06:49;35.77;53.31
70336;SHT31;57756;47.408;18.940;2023-06-22T09:09:16;35.80;53.33
70336;SHT31;57756;47.408;18.940;2023-06-22T09:11:42;36.22;53.26
70336;SHT31;57756;47.408;18.940;2023-06-22T09:14:08;36.71;52.79
70336;SHT31;57756;47.408;18.940;2023-06-22T09:16:34;36.70;52.95
70336;SHT31;57756;47.408;18.940;2023-06-22T09:18:59;36.76;51.89
70336;SHT31;57756;47.408;18.940;2023-06-22T09:21:25;36.73;54.51
70336;SHT31;57756;47.408;18.940;2023-06-22T09:23:51;37.08;53.59
70336;SHT31;57756;47.408;18.940;2023-06-22T09:26:20;37.01;51.94
70336;SHT31;57756;47.408;18.940;2023-06-22T09:28:45;37.13;50.71
70336;SHT31;57756;47.408;18.940;2023-06-22T09:31:11;36.91;53.58
70336;SHT31;57756;47.408;18.940;2023-06-22T09:33:37;36.56;52.57
70336;SHT31;57756;47.408;18.940;2023-06-22T09:36:06;36.62;52.45
70336;SHT31;57756;47.408;18.940;2023-06-22T09:38:35;37.19;50.55
70336;SHT31;57756;47.408;18.940;2023-06-22T09:41:00;36.86;52.49
70336;SHT31;57756;47.408;18.940;2023-06-22T09:43:27;36.81;51.32
70336;SHT31;57756;47.408;18.940;2023-06-22T09:45:52;37.34;52.38
70336;SHT31;57756;47.408;18.940;2023-06-22T09:48:18;37.35;51.81
70336;SHT31;57756;47.408;18.940;2023-06-22T09:50:43;37.39;50.98
70336;SHT31;57756;47.408;18.940;2023-06-22T09:53:09;38.19;48.95
70336;SHT31;57756;47.408;18.940;2023-06-22T09:55:34;37.94;50.39
70336;SHT31;57756;47.408;18.940;2023-06-22T09:58:00;37.99;49.44
70336;SHT31;57756;47.408;18.940;2023-06-22T10:00:26;37.45;50.31
70336;SHT31;57756;47.408;18.940;2023-06-22T10:02:52;38.13;50.65
70336;SHT31;57756;47.408;18.940;2023-06-22T10:05:17;38.27;49.43
70336;SHT31;57756;47.408;18.940;2023-06-22T10:07:43;38.61;50.75
70336;SHT31;57756;47.408;18.940;2023-06-22T10:10:12;39.07;50.37
70336;SHT31;57756;47.408;18.940;2023-06-22T10:12:45;38.40;47.98
70336;SHT31;57756;47.408;18.940;2023-06-22T10:15:10;39.07;50.81
70336;SHT31;57756;47.408;18.940;2023-06-22T10:17:36;39.78;49.26
70336;SHT31;57756;47.408;18.940;2023-06-22T10:20:02;39.89;46.89
70336;SHT31;57756;47.408;18.940;2023-06-22T10:22:36;38.92;47.11
70336;SHT31;57756;47.408;18.940;2023-06-22T10:25:01;38.82;48.39
70336;SHT31;57756;47.408;18.940;2023-06-22T10:27:26;39.53;46.65
70336;SHT31;57756;47.408;18.940;2023-06-22T10:29:52;39.94;46.13
70336;SHT31;57756;47.408;18.940;2023-06-22T10:32:19;39.71;48.64
70336;SHT31;57756;47.408;18.940;2023-06-22T10:34:44;39.84;48.67
70336;SHT31;57756;47.408;18.940;2023-06-22T10:37:10;39.98;45.28
70336;SHT31;57756;47.408;18.940;2023-06-22T10:39:35;39.77;48.28
70336;SHT31;57756;47.408;18.940;2023-06-22T10:42:00;39.14;47.73
70336;SHT31;57756;47.408;18.940;2023-06-22T10:44:26;40.13;46.78
70336;SHT31;57756;47.408;18.940;2023-06-22T10:46:51;40.77;45.60
70336;SHT31;57756;47.408;18.940;2023-06-22T10:49:17;40.04;45.88
70336;SHT31;57756;47.408;18.940;2023-06-22T10:51:42;40.52;45.82
70336;SHT31;57756;47.408;18.940;2023-06-22T10:54:08;39.81;46.66
70336;SHT31;57756;47.408;18.940;2023-06-22T10:56:33;39.58;45.98
70336;SHT31;57756;47.408;18.940;2023-06-22T10:58:59;39.67;47.18
70336;SHT31;57756;47.408;18.940;2023-06-22T11:01:24;40.11;46.02
70336;SHT31;57756;47.408;18.940;2023-06-22T11:03:49;39.33;46.25
70336;SHT31;57756;47.408;18.940;2023-06-22T11:06:15;39.75;48.09
70336;SHT31;57756;47.408;18.940;2023-06-22T11:08:44;40.25;47.58
70336;SHT31;57756;47.408;18.940;2023-06-22T11:11:09;40.56;47.33
70336;SHT31;57756;47.408;18.940;2023-06-22T11:13:35;40.63;46.01
70336;SHT31;57756;47.408;18.940;2023-06-22T11:16:00;40.53;44.77
70336;SHT31;57756;47.408;18.940;2023-06-22T11:18:26;40.54;44.74
70336;SHT31;57756;47.408;18.940;2023-06-22T11:20:51;40.40;47.00
70336;SHT31;57756;47.408;18.940;2023-06-22T11:23:17;40.50;46.34
70336;SHT31;57756;47.408;18.940;2023-06-22T11:25:42;40.67;45.87
70336;SHT31;57756;47.408;18.940;2023-06-22T11:28:08;40.15;43.88
70336;SHT31;57756;47.408;18.940;2023-06-22T11:30:33;40.59;43.91
70336;SHT31;57756;47.408;18.940;2023-06-22T11:32:59;40.70;44.97
70336;SHT31;57756;47.408;18.940;2023-06-22T11:35:25;40.53;45.15
70336;SHT31;57756;47.408;18.940;2023-06-22T11:37:51;40.90;45.19
70336;SHT31;57756;47.408;18.940;2023-06-22T11:40:16;40.91;43.85
70336;SHT31;57756;47.408;18.940;2023-06-22T11:42:43;40.60;44.91
70336;SHT31;57756;47.408;18.940;2023-06-22T11:45:09;40.67;43.84
70336;SHT31;57756;47.408;18.940;2023-06-22T11:47:34;40.26;43.31
70336;SHT31;57756;47.408;18.940;2023-06-22T11:50:01;40.33;43.73
70336;SHT31;57756;47.408;18.940;2023-06-22T11:52:27;40.47;44.76
70336;SHT31;57756;47.408;18.940;2023-06-22T11:54:52;40.11;43.91
70336;SHT31;57756;47.408;18.940;2023-06-22T11:57:18;39.89;45.15
70336;SHT31;57756;47.408;18.940;2023-06-22T11:59:43;40.67;44.66
70336;SHT31;57756;47.408;18.940;2023-06-22T12:02:09;40.37;43.60
70336;SHT31;57756;47.408;18.940;2023-06-22T12:04:35;39.92;45.77
70336;SHT31;57756;47.408;18.940;2023-06-22T12:07:00;40.29;43.17
70336;SHT31;57756;47.408;18.940;2023-06-22T12:09:26;40.09;43.82
70336;SHT31;57756;47.408;18.940;2023-06-22T12:11:51;40.15;46.28
70336;SHT31;57756;47.408;18.940;2023-06-22T12:14:17;40.35;45.75
70336;SHT31;57756;47.408;18.940;2023-06-22T12:16:42;40.71;46.26
70336;SHT31;57756;47.408;18.940;2023-06-22T12:19:09;40.68;45.30
70336;SHT31;57756;47.408;18.940;2023-06-22T12:21:35;40.91;42.27
70336;SHT31;57756;47.408;18.940;2023-06-22T12:24:00;40.12;44.41
70336;SHT31;57756;47.408;18.940;2023-06-22T12:26:26;39.30;44.59
70336;SHT31;57756;47.408;18.940;2023-06-22T12:28:51;38.92;44.78
70336;SHT31;57756;47.408;18.940;2023-06-22T12:31:17;38.37;45.34
70336;SHT31;57756;47.408;18.940;2023-06-22T12:33:42;37.92;46.74
70336;SHT31;57756;47.408;18.940;2023-06-22T12:36:08;38.80;45.75
70336;SHT31;57756;47.408;18.940;2023-06-22T12:38:33;38.71;45.40
70336;SHT31;57756;47.408;18.940;2023-06-22T12:40:59;38.80;45.31
70336;SHT31;57756;47.408;18.940;2023-06-22T12:43:24;38.65;46.94
70336;SHT31;57756;47.408;18.940;2023-06-22T12:45:49;39.26;48.12
70336;SHT31;57756;47.408;18.940;2023-06-22T12:48:15;38.68;45.70
70336;SHT31;57756;47.408;18.940;2023-06-22T12:50:42;38.96;45.60
70336;SHT31;57756;47.408;18.940;2023-06-22T12:53:07;39.19;47.40
70336;SHT31;57756;47.408;18.940;2023-06-22T12:55:33;38.72;45.92
70336;SHT31;57756;47.408;18.940;2023-06-22T12:57:58;38.89;46.47
70336;SHT31;57756;47.408;18.940;2023-06-22T13:00:24;38.91;46.32
70336;SHT31;57756;47.408;18.940;2023-06-22T13:02:49;39.07;46.21
70336;SHT31;57756;47.408;18.940;2023-06-22T13:05:15;39.02;43.80
70336;SHT31;57756;47.408;18.940;2023-06-22T13:07:40;39.19;46.50
70336;SHT31;57756;47.408;18.940;2023-06-22T13:10:08;39.26;47.15
70336;SHT31;57756;47.408;18.940;2023-06-22T13:12:33;39.09;45.71
70336;SHT31;57756;47.408;18.940;2023-06-22T13:14:59;38.80;45.67
70336;SHT31;57756;47.408;18.940;2023-06-22T13:17:24;38.27;47.04
70336;SHT31;57756;47.408;18.940;2023-06-22T13:19:50;38.25;47.97
70336;SHT31;57756;47.408;18.940;2023-06-22T13:22:32;38.07;47.29
70336;SHT31;57756;47.408;18.940;2023-06-22T13:24:59;38.01;47.93
70336;SHT31;57756;47.408;18.940;2023-06-22T13:27:25;37.62;48.58
70336;SHT31;57756;47.408;18.940;2023-06-22T13:29:51;37.83;48.82
70336;SHT31;57756;47.408;18.940;2023-06-22T13:32:16;37.43;47.32
70336;SHT31;57756;47.408;18.940;2023-06-22T13:34:42;37.48;49.79
70336;SHT31;57756;47.408;18.940;2023-06-22T13:37:08;37.55;50.46
70336;SHT31;57756;47.408;18.940;2023-06-22T13:39:34;37.55;51.53
70336;SHT31;57756;47.408;18.940;2023-06-22T13:41:59;37.65;49.70
70336;SHT31;57756;47.408;18.940;2023-06-22T13:44:25;37.62;51.45
70336;SHT31;57756;47.408;18.940;2023-06-22T13:46:56;37.43;48.93
70336;SHT31;57756;47.408;18.940;2023-06-22T13:49:22;37.66;50.36
70336;SHT31;57756;47.408;18.940;2023-06-22T13:51:48;37.68;49.39
70336;SHT31;57756;47.408;18.940;2023-06-22T13:54:14;37.86;47.91
70336;SHT31;57756;47.408;18.940;2023-06-22T13:56:39;37.35;49.35
70336;SHT31;57756;47.408;18.940;2023-06-22T13:59:05;36.86;49.72
70336;SHT31;57756;47.408;18.940;2023-06-22T14:01:32;36.53;50.11
70336;SHT31;57756;47.408;18.940;2023-06-22T14:03:57;36.39;51.00
70336;SHT31;57756;47.408;18.940;2023-06-22T14:06:23;35.88;50.68
70336;SHT31;57756;47.408;18.940;2023-06-22T14:08:48;35.98;52.12
70336;SHT31;57756;47.408;18.940;2023-06-22T14:11:14;36.11;51.50
70336;SHT31;57756;47.408;18.940;2023-06-22T14:13:40;36.06;50.73
70336;SHT31;57756;47.408;18.940;2023-06-22T14:16:08;35.78;50.16
70336;SHT31;57756;47.408;18.940;2023-06-22T14:18:33;35.78;51.08
70336;SHT31;57756;47.408;18.940;2023-06-22T14:20:59;35.44;50.86
70336;SHT31;57756;47.408;18.940;2023-06-22T14:23:24;35.43;52.42
70336;SHT31;57756;47.408;18.940;2023-06-22T14:25:50;35.50;49.49
70336;SHT31;57756;47.408;18.940;2023-06-22T14:28:15;35.62;48.54
70336;SHT31;57756;47.408;18.940;2023-06-22T14:30:41;35.62;53.65
70336;SHT31;57756;47.408;18.940;2023-06-22T14:33:07;35.53;54.56
70336;SHT31;57756;47.408;18.940;2023-06-22T14:35:33;35.77;52.01
70336;SHT31;57756;47.408;18.940;2023-06-22T14:37:58;35.53;52.97
70336;SHT31;57756;47.408;18.940;2023-06-22T14:40:23;35.29;53.93
70336;SHT31;57756;47.408;18.940;2023-06-22T14:42:49;35.29;55.01
70336;SHT31;57756;47.408;18.940;2023-06-22T14:45:14;35.25;54.87
70336;SHT31;57756;47.408;18.940;2023-06-22T14:47:40;35.22;55.33
70336;SHT31;57756;47.408;18.940;2023-06-22T14:50:05;35.09;56.55
70336;SHT31;57756;47.408;18.940;2023-06-22T14:52:31;35.00;57.58
70336;SHT31;57756;47.408;18.940;2023-06-22T14:54:56;34.99;54.32
70336;SHT31;57756;47.408;18.940;2023-06-22T14:57:22;35.03;54.65
70336;SHT31;57756;47.408;18.940;2023-06-22T14:59:49;35.00;54.37
70336;SHT31;57756;47.408;18.940;2023-06-22T15:02:14;35.00;53.23
70336;SHT31;57756;47.408;18.940;2023-06-22T15:04:40;35.14;54.70
70336;SHT31;57756;47.408;18.940;2023-06-22T15:07:06;35.02;54.91
70336;SHT31;57756;47.408;18.940;2023-06-22T15:09:31;34.93;54.79
70336;SHT31;57756;47.408;18.940;2023-06-22T15:11:57;34.92;53.09
70336;SHT31;57756;47.408;18.940;2023-06-22T15:14:23;34.75;52.31